sensor_id;sensor_type;location;lat;lon;timestamp;temperature;humidity
76996;DHT22;65929;49.062;10.338;2024-01-25T00:00:33;7.50;76.70
76996;DHT22;65929;49.062;10.338;2024-01-25T00:01:35;7.50;76.50
76996;DHT22;65929;49.062;10.338;2024-01-25T00:02:36;7.50;76.50
76996;DHT22;65929;49.062;10.338;2024-01-25T00:03:37;7.50;76.40
76996;DHT22;65929;49.062;10.338;2024-01-25T00:04:38;7.50;76.50
76996;DHT22;65929;49.062;10.338;2024-01-25T00:05:39;7.50;76.50
76996;DHT22;65929;49.062;10.338;2024-01-25T00:06:40;7.50;76.70
76996;DHT22;65929;49.062;10.338;2024-01-25T00:07:47;7.50;76.90
76996;DHT22;65929;49.062;10.338;2024-01-25T00:08:48;7.50;76.70
76996;DHT22;65929;49.062;10.338;2024-01-25T00:09:48;7.50;76.60
76996;DHT22;65929;49.062;10.338;2024-01-25T00:10:49;7.50;76.40
76996;DHT22;65929;49.062;10.338;2024-01-25T00:11:50;7.50;76.20
76996;DHT22;65929;49.062;10.338;2024-01-25T00:12:51;7.50;76.10
76996;DHT22;65929;49.062;10.338;2024-01-25T00:13:52;7.50;76.10
76996;DHT22;65929;49.062;10.338;2024-01-25T00:14:54;7.50;76.10
76996;DHT22;65929;49.062;10.338;2024-01-25T00:15:54;7.50;76.20
76996;DHT22;65929;49.062;10.338;2024-01-25T00:16:57;7.50;76.30
76996;DHT22;65929;49.062;10.338;2024-01-25T00:17:58;7.50;76.30
76996;DHT22;65929;49.062;10.338;2024-01-25T00:18:59;7.50;76.30
76996;DHT22;65929;49.062;10.338;2024-01-25T00:19:59;7.50;76.30
76996;DHT22;65929;49.062;10.338;2024-01-25T00:21:00;7.50;76.30
76996;DHT22;65929;49.062;10.338;2024-01-25T00:22:02;7.50;76.30
76996;DHT22;65929;49.062;10.338;2024-01-25T00:23:03;7.50;76.40
76996;DHT22;65929;49.062;10.338;2024-01-25T00:24:04;7.50;76.50
76996;DHT22;65929;49.062;10.338;2024-01-25T00:25:06;7.50;76.60
76996;DHT22;65929;49.062;10.338;2024-01-25T00:26:07;7.50;76.70
76996;DHT22;65929;49.062;10.338;2024-01-25T00:27:08;7.50;76.80
76996;DHT22;65929;49.062;10.338;2024-01-25T00:28:09;7.50;76.70
76996;DHT22;65929;49.062;10.338;2024-01-25T00:29:10;7.50;76.80
76996;DHT22;65929;49.062;10.338;2024-01-25T00:30:11;7.50;77.10
76996;DHT22;65929;49.062;10.338;2024-01-25T00:31:12;7.50;77.10
76996;DHT22;65929;49.062;10.338;2024-01-25T00:32:15;7.50;77.20
76996;DHT22;65929;49.062;10.338;2024-01-25T00:33:16;7.50;77.30
76996;DHT22;65929;49.062;10.338;2024-01-25T00:34:17;7.50;77.20
76996;DHT22;65929;49.062;10.338;2024-01-25T00:35:18;7.50;77.30
76996;DHT22;65929;49.062;10.338;2024-01-25T00:36:20;7.50;77.30
76996;DHT22;65929;49.062;10.338;2024-01-25T00:37:21;7.50;77.50
76996;DHT22;65929;49.062;10.338;2024-01-25T00:38:30;7.50;77.50
76996;DHT22;65929;49.062;10.338;2024-01-25T00:39:39;7.50;77.50
76996;DHT22;65929;49.062;10.338;2024-01-25T00:40:50;7.50;77.30
76996;DHT22;65929;49.062;10.338;2024-01-25T00:41:55;7.50;77.50
76996;DHT22;65929;49.062;10.338;2024-01-25T00:43:02;7.50;77.50
76996;DHT22;65929;49.062;10.338;2024-01-25T00:44:04;7.50;77.30
76996;DHT22;65929;49.062;10.338;2024-01-25T00:45:07;7.50;77.40
76996;DHT22;65929;49.062;10.338;2024-01-25T00:46:09;7.50;77.40
76996;DHT22;65929;49.062;10.338;2024-01-25T00:47:10;7.50;77.60
76996;DHT22;65929;49.062;10.338;2024-01-25T00:48:13;7.50;77.60
76996;DHT22;65929;49.062;10.338;2024-01-25T00:49:15;7.50;77.50
76996;DHT22;65929;49.062;10.338;2024-01-25T00:50:17;7.50;77.70
76996;DHT22;65929;49.062;10.338;2024-01-25T00:51:21;7.50;77.40
76996;DHT22;65929;49.062;10.338;2024-01-25T00:52:24;7.50;77.50
76996;DHT22;65929;49.062;10.338;2024-01-25T00:53:25;7.50;77.60
76996;DHT22;65929;49.062;10.338;2024-01-25T00:54:27;7.50;77.60
76996;DHT22;65929;49.062;10.338;2024-01-25T00:55:28;7.50;77.50
76996;DHT22;65929;49.062;10.338;2024-01-25T00:56:30;7.50;77.50
76996;DHT22;65929;49.062;10.338;2024-01-25T00:57:32;7.50;77.30
76996;DHT22;65929;49.062;10.338;2024-01-25T00:58:33;7.50;77.50
76996;DHT22;65929;49.062;10.338;2024-01-25T00:59:35;7.50;77.30
76996;DHT22;65929;49.062;10.338;2024-01-25T01:00:36;7.50;77.40
76996;DHT22;65929;49.062;10.338;2024-01-25T01:01:37;7.50;77.60
76996;DHT22;65929;49.062;10.338;2024-01-25T01:02:41;7.50;77.60
76996;DHT22;65929;49.062;10.338;2024-01-25T01:03:45;7.50;77.60
76996;DHT22;65929;49.062;10.338;2024-01-25T01:04:46;7.50;77.60
76996;DHT22;65929;49.062;10.338;2024-01-25T01:05:48;7.50;77.60
76996;DHT22;65929;49.062;10.338;2024-01-25T01:06:49;7.50;77.60
76996;DHT22;65929;49.062;10.338;2024-01-25T01:07:51;7.40;77.60
76996;DHT22;65929;49.062;10.338;2024-01-25T01:08:52;7.40;77.80
76996;DHT22;65929;49.062;10.338;2024-01-25T01:09:53;7.40;77.90
76996;DHT22;65929;49.062;10.338;2024-01-25T01:10:54;7.40;77.90
76996;DHT22;65929;49.062;10.338;2024-01-25T01:11:55;7.40;77.80
76996;DHT22;65929;49.062;10.338;2024-01-25T01:12:56;7.40;77.40
76996;DHT22;65929;49.062;10.338;2024-01-25T01:13:57;7.40;77.60
76996;DHT22;65929;49.062;10.338;2024-01-25T01:14:58;7.40;77.50
76996;DHT22;65929;49.062;10.338;2024-01-25T01:15:59;7.40;77.50
76996;DHT22;65929;49.062;10.338;2024-01-25T01:17:00;7.40;77.50
76996;DHT22;65929;49.062;10.338;2024-01-25T01:18:00;7.40;77.40
76996;DHT22;65929;49.062;10.338;2024-01-25T01:19:03;7.40;77.50
76996;DHT22;65929;49.062;10.338;2024-01-25T01:20:08;7.40;77.50
76996;DHT22;65929;49.062;10.338;2024-01-25T01:21:09;7.40;77.50
76996;DHT22;65929;49.062;10.338;2024-01-25T01:22:10;7.40;77.60
76996;DHT22;65929;49.062;10.338;2024-01-25T01:23:10;7.40;77.60
76996;DHT22;65929;49.062;10.338;2024-01-25T01:24:11;7.40;77.60
76996;DHT22;65929;49.062;10.338;2024-01-25T01:25:13;7.40;77.60
76996;DHT22;65929;49.062;10.338;2024-01-25T01:26:13;7.40;77.70
76996;DHT22;65929;49.062;10.338;2024-01-25T01:27:15;7.40;77.80
76996;DHT22;65929;49.062;10.338;2024-01-25T01:28:16;7.40;77.90
76996;DHT22;65929;49.062;10.338;2024-01-25T01:29:17;7.40;78.00
76996;DHT22;65929;49.062;10.338;2024-01-25T01:30:19;7.40;78.00
76996;DHT22;65929;49.062;10.338;2024-01-25T01:31:20;7.40;78.20
76996;DHT22;65929;49.062;10.338;2024-01-25T01:32:21;7.30;78.20
76996;DHT22;65929;49.062;10.338;2024-01-25T01:33:22;7.40;78.20
76996;DHT22;65929;49.062;10.338;2024-01-25T01:34:24;7.40;78.20
76996;DHT22;65929;49.062;10.338;2024-01-25T01:35:25;7.40;78.00
76996;DHT22;65929;49.062;10.338;2024-01-25T01:36:26;7.50;77.50
76996;DHT22;65929;49.062;10.338;2024-01-25T01:37:27;7.50;77.50
76996;DHT22;65929;49.062;10.338;2024-01-25T01:38:28;7.50;77.50
76996;DHT22;65929;49.062;10.338;2024-01-25T01:39:29;7.50;77.10
76996;DHT22;65929;49.062;10.338;2024-01-25T01:40:29;7.50;77.30
76996;DHT22;65929;49.062;10.338;2024-01-25T01:41:30;7.50;77.30
76996;DHT22;65929;49.062;10.338;2024-01-25T01:42:32;7.50;77.30
76996;DHT22;65929;49.062;10.338;2024-01-25T01:43:34;7.50;77.40
76996;DHT22;65929;49.062;10.338;2024-01-25T01:44:35;7.50;77.40
76996;DHT22;65929;49.062;10.338;2024-01-25T01:45:36;7.50;77.60
76996;DHT22;65929;49.062;10.338;2024-01-25T01:46:37;7.50;77.60
76996;DHT22;65929;49.062;10.338;2024-01-25T01:47:41;7.50;77.70
76996;DHT22;65929;49.062;10.338;2024-01-25T01:48:42;7.50;77.30
76996;DHT22;65929;49.062;10.338;2024-01-25T01:49:45;7.50;77.60
76996;DHT22;65929;49.062;10.338;2024-01-25T01:50:46;7.40;77.70
76996;DHT22;65929;49.062;10.338;2024-01-25T01:51:48;7.40;77.80
76996;DHT22;65929;49.062;10.338;2024-01-25T01:52:49;7.40;77.90
76996;DHT22;65929;49.062;10.338;2024-01-25T01:53:50;7.40;77.60
76996;DHT22;65929;49.062;10.338;2024-01-25T01:54:51;7.40;77.60
76996;DHT22;65929;49.062;10.338;2024-01-25T01:55:52;7.40;77.70
76996;DHT22;65929;49.062;10.338;2024-01-25T01:56:53;7.40;77.80
76996;DHT22;65929;49.062;10.338;2024-01-25T01:57:55;7.40;77.80
76996;DHT22;65929;49.062;10.338;2024-01-25T01:58:57;7.40;77.30
76996;DHT22;65929;49.062;10.338;2024-01-25T01:59:59;7.40;77.20
76996;DHT22;65929;49.062;10.338;2024-01-25T02:01:02;7.40;77.20
76996;DHT22;65929;49.062;10.338;2024-01-25T02:02:03;7.40;77.40
76996;DHT22;65929;49.062;10.338;2024-01-25T02:03:05;7.40;77.60
76996;DHT22;65929;49.062;10.338;2024-01-25T02:04:07;7.40;77.70
76996;DHT22;65929;49.062;10.338;2024-01-25T02:05:09;7.40;77.80
76996;DHT22;65929;49.062;10.338;2024-01-25T02:06:11;7.30;77.90
76996;DHT22;65929;49.062;10.338;2024-01-25T02:07:12;7.30;78.20
76996;DHT22;65929;49.062;10.338;2024-01-25T02:08:15;7.30;78.10
76996;DHT22;65929;49.062;10.338;2024-01-25T02:09:16;7.30;78.30
76996;DHT22;65929;49.062;10.338;2024-01-25T02:10:17;7.30;78.30
76996;DHT22;65929;49.062;10.338;2024-01-25T02:11:18;7.30;78.20
76996;DHT22;65929;49.062;10.338;2024-01-25T02:12:19;7.30;78.10
76996;DHT22;65929;49.062;10.338;2024-01-25T02:13:21;7.30;78.10
76996;DHT22;65929;49.062;10.338;2024-01-25T02:14:22;7.30;78.50
76996;DHT22;65929;49.062;10.338;2024-01-25T02:15:23;7.20;78.70
76996;DHT22;65929;49.062;10.338;2024-01-25T02:16:24;7.20;78.90
76996;DHT22;65929;49.062;10.338;2024-01-25T02:17:24;7.20;79.00
76996;DHT22;65929;49.062;10.338;2024-01-25T02:18:26;7.20;79.40
76996;DHT22;65929;49.062;10.338;2024-01-25T02:19:27;7.20;79.50
76996;DHT22;65929;49.062;10.338;2024-01-25T02:20:29;7.20;79.60
76996;DHT22;65929;49.062;10.338;2024-01-25T02:21:30;7.20;79.60
76996;DHT22;65929;49.062;10.338;2024-01-25T02:22:32;7.20;79.60
76996;DHT22;65929;49.062;10.338;2024-01-25T02:23:33;7.20;79.80
76996;DHT22;65929;49.062;10.338;2024-01-25T02:24:34;7.20;79.90
76996;DHT22;65929;49.062;10.338;2024-01-25T02:25:35;7.20;80.00
76996;DHT22;65929;49.062;10.338;2024-01-25T02:26:36;7.20;80.10
76996;DHT22;65929;49.062;10.338;2024-01-25T02:27:37;7.20;80.10
76996;DHT22;65929;49.062;10.338;2024-01-25T02:28:39;7.20;80.20
76996;DHT22;65929;49.062;10.338;2024-01-25T02:29:40;7.20;80.30
76996;DHT22;65929;49.062;10.338;2024-01-25T02:30:41;7.20;80.30
76996;DHT22;65929;49.062;10.338;2024-01-25T02:31:42;7.20;80.20
76996;DHT22;65929;49.062;10.338;2024-01-25T02:32:43;7.20;80.20
76996;DHT22;65929;49.062;10.338;2024-01-25T02:33:44;7.20;80.20
76996;DHT22;65929;49.062;10.338;2024-01-25T02:34:45;7.20;80.20
76996;DHT22;65929;49.062;10.338;2024-01-25T02:35:46;7.20;80.00
76996;DHT22;65929;49.062;10.338;2024-01-25T02:36:47;7.20;80.00
76996;DHT22;65929;49.062;10.338;2024-01-25T02:37:49;7.20;80.00
76996;DHT22;65929;49.062;10.338;2024-01-25T02:38:51;7.20;80.10
76996;DHT22;65929;49.062;10.338;2024-01-25T02:39:52;7.20;80.10
76996;DHT22;65929;49.062;10.338;2024-01-25T02:40:53;7.20;80.20
76996;DHT22;65929;49.062;10.338;2024-01-25T02:41:54;7.20;80.30
76996;DHT22;65929;49.062;10.338;2024-01-25T02:42:55;7.20;80.20
76996;DHT22;65929;49.062;10.338;2024-01-25T02:43:57;7.20;80.30
76996;DHT22;65929;49.062;10.338;2024-01-25T02:44:58;7.20;80.40
76996;DHT22;65929;49.062;10.338;2024-01-25T02:45:59;7.20;80.50
76996;DHT22;65929;49.062;10.338;2024-01-25T02:46:59;7.20;80.50
76996;DHT22;65929;49.062;10.338;2024-01-25T02:48:02;7.20;80.50
76996;DHT22;65929;49.062;10.338;2024-01-25T02:49:04;7.20;80.60
76996;DHT22;65929;49.062;10.338;2024-01-25T02:50:06;7.20;80.30
76996;DHT22;65929;49.062;10.338;2024-01-25T02:51:07;7.20;80.10
76996;DHT22;65929;49.062;10.338;2024-01-25T02:52:07;7.20;80.20
76996;DHT22;65929;49.062;10.338;2024-01-25T02:53:10;7.20;80.40
76996;DHT22;65929;49.062;10.338;2024-01-25T02:54:11;7.10;80.20
76996;DHT22;65929;49.062;10.338;2024-01-25T02:55:12;7.10;80.00
76996;DHT22;65929;49.062;10.338;2024-01-25T02:56:13;7.10;80.00
76996;DHT22;65929;49.062;10.338;2024-01-25T02:57:14;7.20;79.40
76996;DHT22;65929;49.062;10.338;2024-01-25T02:58:14;7.20;79.50
76996;DHT22;65929;49.062;10.338;2024-01-25T02:59:15;7.20;79.50
76996;DHT22;65929;49.062;10.338;2024-01-25T03:00:16;7.20;79.40
76996;DHT22;65929;49.062;10.338;2024-01-25T03:01:17;7.20;79.50
76996;DHT22;65929;49.062;10.338;2024-01-25T03:02:18;7.20;79.40
76996;DHT22;65929;49.062;10.338;2024-01-25T03:03:19;7.10;79.30
76996;DHT22;65929;49.062;10.338;2024-01-25T03:04:20;7.20;79.30
76996;DHT22;65929;49.062;10.338;2024-01-25T03:05:21;7.20;79.20
76996;DHT22;65929;49.062;10.338;2024-01-25T03:06:22;7.20;79.30
76996;DHT22;65929;49.062;10.338;2024-01-25T03:07:23;7.20;79.20
76996;DHT22;65929;49.062;10.338;2024-01-25T03:08:25;7.20;79.00
76996;DHT22;65929;49.062;10.338;2024-01-25T03:09:27;7.20;79.00
76996;DHT22;65929;49.062;10.338;2024-01-25T03:10:29;7.20;79.00
76996;DHT22;65929;49.062;10.338;2024-01-25T03:11:30;7.20;79.10
76996;DHT22;65929;49.062;10.338;2024-01-25T03:12:31;7.20;79.20
76996;DHT22;65929;49.062;10.338;2024-01-25T03:13:32;7.10;79.30
76996;DHT22;65929;49.062;10.338;2024-01-25T03:14:35;7.10;79.40
76996;DHT22;65929;49.062;10.338;2024-01-25T03:15:35;7.10;79.30
76996;DHT22;65929;49.062;10.338;2024-01-25T03:16:36;7.00;79.30
76996;DHT22;65929;49.062;10.338;2024-01-25T03:17:37;7.00;79.00
76996;DHT22;65929;49.062;10.338;2024-01-25T03:18:38;7.10;78.50
76996;DHT22;65929;49.062;10.338;2024-01-25T03:19:39;7.10;78.50
76996;DHT22;65929;49.062;10.338;2024-01-25T03:20:40;7.10;78.70
76996;DHT22;65929;49.062;10.338;2024-01-25T03:21:41;7.10;78.50
76996;DHT22;65929;49.062;10.338;2024-01-25T03:22:42;7.10;78.70
76996;DHT22;65929;49.062;10.338;2024-01-25T03:23:44;7.10;78.80
76996;DHT22;65929;49.062;10.338;2024-01-25T03:24:45;7.00;79.00
76996;DHT22;65929;49.062;10.338;2024-01-25T03:25:47;7.00;78.90
76996;DHT22;65929;49.062;10.338;2024-01-25T03:26:48;7.00;79.10
76996;DHT22;65929;49.062;10.338;2024-01-25T03:27:49;7.00;79.10
76996;DHT22;65929;49.062;10.338;2024-01-25T03:28:50;7.00;79.40
76996;DHT22;65929;49.062;10.338;2024-01-25T03:29:51;7.00;79.40
76996;DHT22;65929;49.062;10.338;2024-01-25T03:30:52;7.00;79.30
76996;DHT22;65929;49.062;10.338;2024-01-25T03:31:52;7.00;79.40
76996;DHT22;65929;49.062;10.338;2024-01-25T03:32:53;7.00;79.30
76996;DHT22;65929;49.062;10.338;2024-01-25T03:33:54;7.00;79.30
76996;DHT22;65929;49.062;10.338;2024-01-25T03:34:55;7.00;79.00
76996;DHT22;65929;49.062;10.338;2024-01-25T03:35:56;7.00;78.90
76996;DHT22;65929;49.062;10.338;2024-01-25T03:36:57;7.00;79.00
76996;DHT22;65929;49.062;10.338;2024-01-25T03:37:58;7.00;79.10
76996;DHT22;65929;49.062;10.338;2024-01-25T03:39:00;7.00;79.20
76996;DHT22;65929;49.062;10.338;2024-01-25T03:40:01;7.00;79.10
76996;DHT22;65929;49.062;10.338;2024-01-25T03:41:02;7.00;79.10
76996;DHT22;65929;49.062;10.338;2024-01-25T03:42:03;6.90;79.30
76996;DHT22;65929;49.062;10.338;2024-01-25T03:43:04;6.90;79.30
76996;DHT22;65929;49.062;10.338;2024-01-25T03:44:05;6.90;79.10
76996;DHT22;65929;49.062;10.338;2024-01-25T03:45:07;6.90;79.20
76996;DHT22;65929;49.062;10.338;2024-01-25T03:46:08;6.90;79.10
76996;DHT22;65929;49.062;10.338;2024-01-25T03:47:09;6.90;79.20
76996;DHT22;65929;49.062;10.338;2024-01-25T03:48:10;6.90;79.20
76996;DHT22;65929;49.062;10.338;2024-01-25T03:49:11;6.90;79.30
76996;DHT22;65929;49.062;10.338;2024-01-25T03:50:12;6.90;79.40
76996;DHT22;65929;49.062;10.338;2024-01-25T03:51:13;6.90;79.50
76996;DHT22;65929;49.062;10.338;2024-01-25T03:52:13;6.90;79.50
76996;DHT22;65929;49.062;10.338;2024-01-25T03:53:14;6.80;79.60
76996;DHT22;65929;49.062;10.338;2024-01-25T03:54:17;6.80;79.60
76996;DHT22;65929;49.062;10.338;2024-01-25T03:55:17;6.80;79.70
76996;DHT22;65929;49.062;10.338;2024-01-25T03:56:18;6.80;79.90
76996;DHT22;65929;49.062;10.338;2024-01-25T03:57:19;6.80;80.00
76996;DHT22;65929;49.062;10.338;2024-01-25T03:58:20;6.80;79.90
76996;DHT22;65929;49.062;10.338;2024-01-25T03:59:21;6.80;79.90
76996;DHT22;65929;49.062;10.338;2024-01-25T04:00:22;6.70;80.00
76996;DHT22;65929;49.062;10.338;2024-01-25T04:01:23;6.70;80.00
76996;DHT22;65929;49.062;10.338;2024-01-25T04:02:24;6.60;80.00
76996;DHT22;65929;49.062;10.338;2024-01-25T04:03:25;6.60;80.10
76996;DHT22;65929;49.062;10.338;2024-01-25T04:04:26;6.60;80.20
76996;DHT22;65929;49.062;10.338;2024-01-25T04:05:27;6.50;80.20
76996;DHT22;65929;49.062;10.338;2024-01-25T04:06:28;6.50;80.40
76996;DHT22;65929;49.062;10.338;2024-01-25T04:07:28;6.50;80.30
76996;DHT22;65929;49.062;10.338;2024-01-25T04:08:29;6.40;80.30
76996;DHT22;65929;49.062;10.338;2024-01-25T04:09:32;6.50;80.20
76996;DHT22;65929;49.062;10.338;2024-01-25T04:10:32;6.50;80.20
76996;DHT22;65929;49.062;10.338;2024-01-25T04:11:33;6.40;80.30
76996;DHT22;65929;49.062;10.338;2024-01-25T04:12:34;6.40;80.40
76996;DHT22;65929;49.062;10.338;2024-01-25T04:13:35;6.40;80.10
76996;DHT22;65929;49.062;10.338;2024-01-25T04:14:36;6.40;79.90
76996;DHT22;65929;49.062;10.338;2024-01-25T04:15:37;6.40;80.00
76996;DHT22;65929;49.062;10.338;2024-01-25T04:16:38;6.40;79.90
76996;DHT22;65929;49.062;10.338;2024-01-25T04:17:40;6.40;79.80
76996;DHT22;65929;49.062;10.338;2024-01-25T04:18:40;6.40;79.90
76996;DHT22;65929;49.062;10.338;2024-01-25T04:19:41;6.30;79.90
76996;DHT22;65929;49.062;10.338;2024-01-25T04:20:44;6.30;80.00
76996;DHT22;65929;49.062;10.338;2024-01-25T04:21:45;6.30;80.00
76996;DHT22;65929;49.062;10.338;2024-01-25T04:22:45;6.30;80.10
76996;DHT22;65929;49.062;10.338;2024-01-25T04:23:46;6.20;80.20
76996;DHT22;65929;49.062;10.338;2024-01-25T04:24:49;6.20;80.40
76996;DHT22;65929;49.062;10.338;2024-01-25T04:25:50;6.10;80.50
76996;DHT22;65929;49.062;10.338;2024-01-25T04:26:52;6.10;80.50
76996;DHT22;65929;49.062;10.338;2024-01-25T04:27:53;6.10;80.50
76996;DHT22;65929;49.062;10.338;2024-01-25T04:28:54;6.10;80.40
76996;DHT22;65929;49.062;10.338;2024-01-25T04:29:54;6.20;80.20
76996;DHT22;65929;49.062;10.338;2024-01-25T04:30:55;6.20;80.10
76996;DHT22;65929;49.062;10.338;2024-01-25T04:31:56;6.20;80.10
76996;DHT22;65929;49.062;10.338;2024-01-25T04:32:57;6.20;80.20
76996;DHT22;65929;49.062;10.338;2024-01-25T04:33:58;6.20;80.00
76996;DHT22;65929;49.062;10.338;2024-01-25T04:35:00;6.20;80.00
76996;DHT22;65929;49.062;10.338;2024-01-25T04:36:00;6.20;80.00
76996;DHT22;65929;49.062;10.338;2024-01-25T04:37:01;6.20;79.80
76996;DHT22;65929;49.062;10.338;2024-01-25T04:38:03;6.20;79.70
76996;DHT22;65929;49.062;10.338;2024-01-25T04:39:04;6.20;79.70
76996;DHT22;65929;49.062;10.338;2024-01-25T04:40:08;6.20;79.80
76996;DHT22;65929;49.062;10.338;2024-01-25T04:41:09;6.20;80.00
76996;DHT22;65929;49.062;10.338;2024-01-25T04:42:10;6.10;80.10
76996;DHT22;65929;49.062;10.338;2024-01-25T04:43:10;6.20;80.10
76996;DHT22;65929;49.062;10.338;2024-01-25T04:44:12;6.10;80.10
76996;DHT22;65929;49.062;10.338;2024-01-25T04:45:13;6.10;80.10
76996;DHT22;65929;49.062;10.338;2024-01-25T04:46:14;6.10;80.10
76996;DHT22;65929;49.062;10.338;2024-01-25T04:47:15;6.20;80.10
76996;DHT22;65929;49.062;10.338;2024-01-25T04:48:16;6.10;80.10
76996;DHT22;65929;49.062;10.338;2024-01-25T04:49:17;6.10;80.20
76996;DHT22;65929;49.062;10.338;2024-01-25T04:50:18;6.10;80.40
76996;DHT22;65929;49.062;10.338;2024-01-25T04:51:19;6.10;80.50
76996;DHT22;65929;49.062;10.338;2024-01-25T04:52:23;6.10;80.60
76996;DHT22;65929;49.062;10.338;2024-01-25T04:53:24;6.10;80.60
76996;DHT22;65929;49.062;10.338;2024-01-25T04:54:25;6.10;80.70
76996;DHT22;65929;49.062;10.338;2024-01-25T04:55:27;6.00;80.70
76996;DHT22;65929;49.062;10.338;2024-01-25T04:56:28;6.10;80.30
76996;DHT22;65929;49.062;10.338;2024-01-25T04:57:29;6.20;80.10
76996;DHT22;65929;49.062;10.338;2024-01-25T04:58:30;6.10;80.20
76996;DHT22;65929;49.062;10.338;2024-01-25T04:59:31;6.10;80.20
76996;DHT22;65929;49.062;10.338;2024-01-25T05:00:32;6.10;80.30
76996;DHT22;65929;49.062;10.338;2024-01-25T05:01:33;6.10;80.30
76996;DHT22;65929;49.062;10.338;2024-01-25T05:02:33;6.00;80.40
76996;DHT22;65929;49.062;10.338;2024-01-25T05:03:34;6.00;80.50
76996;DHT22;65929;49.062;10.338;2024-01-25T05:04:35;6.00;80.50
76996;DHT22;65929;49.062;10.338;2024-01-25T05:05:36;6.00;80.40
76996;DHT22;65929;49.062;10.338;2024-01-25T05:06:37;5.90;80.50
76996;DHT22;65929;49.062;10.338;2024-01-25T05:07:38;5.90;80.50
76996;DHT22;65929;49.062;10.338;2024-01-25T05:08:41;5.90;80.70
76996;DHT22;65929;49.062;10.338;2024-01-25T05:09:42;5.90;80.80
76996;DHT22;65929;49.062;10.338;2024-01-25T05:10:45;5.80;80.90
76996;DHT22;65929;49.062;10.338;2024-01-25T05:11:46;5.80;81.00
76996;DHT22;65929;49.062;10.338;2024-01-25T05:12:46;5.80;81.00
76996;DHT22;65929;49.062;10.338;2024-01-25T05:13:47;5.80;81.00
76996;DHT22;65929;49.062;10.338;2024-01-25T05:14:48;5.80;81.00
76996;DHT22;65929;49.062;10.338;2024-01-25T05:15:49;5.80;81.00
76996;DHT22;65929;49.062;10.338;2024-01-25T05:16:50;5.80;80.90
76996;DHT22;65929;49.062;10.338;2024-01-25T05:17:51;5.80;80.90
76996;DHT22;65929;49.062;10.338;2024-01-25T05:18:52;5.80;81.10
76996;DHT22;65929;49.062;10.338;2024-01-25T05:19:53;5.80;81.00
76996;DHT22;65929;49.062;10.338;2024-01-25T05:20:54;5.80;80.90
76996;DHT22;65929;49.062;10.338;2024-01-25T05:21:55;5.80;80.90
76996;DHT22;65929;49.062;10.338;2024-01-25T05:22:56;5.80;81.00
76996;DHT22;65929;49.062;10.338;2024-01-25T05:23:57;5.80;80.90
76996;DHT22;65929;49.062;10.338;2024-01-25T05:24:57;5.80;80.90
76996;DHT22;65929;49.062;10.338;2024-01-25T05:26:00;5.80;81.10
76996;DHT22;65929;49.062;10.338;2024-01-25T05:27:02;5.80;81.20
76996;DHT22;65929;49.062;10.338;2024-01-25T05:28:04;5.80;81.40
76996;DHT22;65929;49.062;10.338;2024-01-25T05:29:05;5.80;81.40
76996;DHT22;65929;49.062;10.338;2024-01-25T05:30:07;5.70;81.50
76996;DHT22;65929;49.062;10.338;2024-01-25T05:31:08;5.80;81.60
76996;DHT22;65929;49.062;10.338;2024-01-25T05:32:13;5.70;81.60
76996;DHT22;65929;49.062;10.338;2024-01-25T05:33:14;5.80;81.60
76996;DHT22;65929;49.062;10.338;2024-01-25T05:34:15;5.70;81.60
76996;DHT22;65929;49.062;10.338;2024-01-25T05:35:16;5.70;81.60
76996;DHT22;65929;49.062;10.338;2024-01-25T05:36:17;5.70;81.60
76996;DHT22;65929;49.062;10.338;2024-01-25T05:37:18;5.70;81.70
76996;DHT22;65929;49.062;10.338;2024-01-25T05:38:19;5.70;82.00
76996;DHT22;65929;49.062;10.338;2024-01-25T05:39:20;5.70;82.10
76996;DHT22;65929;49.062;10.338;2024-01-25T05:40:21;5.70;82.00
76996;DHT22;65929;49.062;10.338;2024-01-25T05:41:23;5.70;82.00
76996;DHT22;65929;49.062;10.338;2024-01-25T05:42:24;5.70;82.20
76996;DHT22;65929;49.062;10.338;2024-01-25T05:43:25;5.60;82.30
76996;DHT22;65929;49.062;10.338;2024-01-25T05:44:26;5.60;82.30
76996;DHT22;65929;49.062;10.338;2024-01-25T05:45:27;5.60;82.40
76996;DHT22;65929;49.062;10.338;2024-01-25T05:46:28;5.60;82.50
76996;DHT22;65929;49.062;10.338;2024-01-25T05:47:29;5.70;82.60
76996;DHT22;65929;49.062;10.338;2024-01-25T05:48:30;5.70;82.50
76996;DHT22;65929;49.062;10.338;2024-01-25T05:49:30;5.70;82.40
76996;DHT22;65929;49.062;10.338;2024-01-25T05:50:31;5.70;82.30
76996;DHT22;65929;49.062;10.338;2024-01-25T05:51:33;5.70;82.40
76996;DHT22;65929;49.062;10.338;2024-01-25T05:52:34;5.70;82.50
76996;DHT22;65929;49.062;10.338;2024-01-25T05:53:37;5.70;82.40
76996;DHT22;65929;49.062;10.338;2024-01-25T05:54:38;5.70;82.40
76996;DHT22;65929;49.062;10.338;2024-01-25T05:55:39;5.80;82.40
76996;DHT22;65929;49.062;10.338;2024-01-25T05:56:41;5.80;82.30
76996;DHT22;65929;49.062;10.338;2024-01-25T05:57:43;5.80;82.30
76996;DHT22;65929;49.062;10.338;2024-01-25T05:58:45;5.80;82.30
76996;DHT22;65929;49.062;10.338;2024-01-25T05:59:46;5.80;82.10
76996;DHT22;65929;49.062;10.338;2024-01-25T06:00:47;5.80;82.20
76996;DHT22;65929;49.062;10.338;2024-01-25T06:01:47;5.80;82.30
76996;DHT22;65929;49.062;10.338;2024-01-25T06:02:48;5.80;82.20
76996;DHT22;65929;49.062;10.338;2024-01-25T06:03:49;5.80;82.20
76996;DHT22;65929;49.062;10.338;2024-01-25T06:04:50;5.70;82.40
76996;DHT22;65929;49.062;10.338;2024-01-25T06:05:51;5.70;82.40
76996;DHT22;65929;49.062;10.338;2024-01-25T06:06:52;5.70;82.40
76996;DHT22;65929;49.062;10.338;2024-01-25T06:07:53;5.70;82.30
76996;DHT22;65929;49.062;10.338;2024-01-25T06:08:54;5.80;82.20
76996;DHT22;65929;49.062;10.338;2024-01-25T06:09:55;5.70;82.10
76996;DHT22;65929;49.062;10.338;2024-01-25T06:10:56;5.80;82.00
76996;DHT22;65929;49.062;10.338;2024-01-25T06:11:58;5.80;82.00
76996;DHT22;65929;49.062;10.338;2024-01-25T06:12:59;5.80;82.00
76996;DHT22;65929;49.062;10.338;2024-01-25T06:14:00;5.80;81.90
76996;DHT22;65929;49.062;10.338;2024-01-25T06:15:01;5.80;82.00
76996;DHT22;65929;49.062;10.338;2024-01-25T06:16:02;5.80;81.80
76996;DHT22;65929;49.062;10.338;2024-01-25T06:17:03;5.80;81.90
76996;DHT22;65929;49.062;10.338;2024-01-25T06:18:04;5.70;81.90
76996;DHT22;65929;49.062;10.338;2024-01-25T06:19:06;5.70;82.10
76996;DHT22;65929;49.062;10.338;2024-01-25T06:20:09;5.70;82.20
76996;DHT22;65929;49.062;10.338;2024-01-25T06:21:11;5.70;82.30
76996;DHT22;65929;49.062;10.338;2024-01-25T06:22:12;5.60;82.50
76996;DHT22;65929;49.062;10.338;2024-01-25T06:23:13;5.60;82.60
76996;DHT22;65929;49.062;10.338;2024-01-25T06:24:14;5.60;82.60
76996;DHT22;65929;49.062;10.338;2024-01-25T06:25:15;5.60;82.70
76996;DHT22;65929;49.062;10.338;2024-01-25T06:26:16;5.60;82.80
76996;DHT22;65929;49.062;10.338;2024-01-25T06:27:18;5.60;82.90